ソチ の空港の天気 - METARとTAF

ソチ空港 ( URSS / AER ) - ロシア ソチ
飛行場実況気象(Metar)
観測時間04/21 19:30 MSK (04/21 16:30 UTC)
風向・風速北北西 1m/s
視程10km以上
天気現象
全天を覆う雲 雲底高度 1250m
気温12℃
湿度71%
気圧1016hPa
METARURSS 211630Z 34001MPS 9999 OVC041 12/07 Q1016 R02/010070 R06/010070 NOSIG RMK R06/32002G06MPS MT OBSC QFE760
過去の天気等 Google飛行場航空写真 Wunderground天気予報

過去48時間のMETAR

飛行場予報(TAF)
発表時間: 4/21 16:56 MSK (4/21 13:56 UTC)
予報対象時間: 21日18時 MSK ~ 22日18時 MSK
風向・風速西 6m/s
視程10km以上
全天の4割程度の雲 雲底高度 340m
全天の4割程度の積乱雲 雲底高度 910m
全天の8割程度の雲 雲底高度 3050m
21日18時 MSK ~ 21日20時 MSK に一時的に
天気現象弱いしゅう雨
21日20時 MSK ~ 21日21時 MSK に徐々に
風向・風速北東 5m/s
21日21時 MSK ~ 22日11時 MSK に一時的に
風向・風速不定 1m/s
22日11時 MSK ~ 22日12時 MSK に徐々に
風向・風速南 5m/s
22日13時 MSK ~ 22日14時 MSK に徐々に
風向・風速西 5m/s 瞬間風速 10m/s
TAF URSS 211356Z 2115/2215 28006MPS 9999 SCT011 SCT030CB BKN100
TEMPO 2115/2117 -SHRA
BECMG 2117/2118 05005MPS
TEMPO 2118/2208 VRB01MPS
BECMG 2208/2209 19005MPS
BECMG 2210/2211 27005G10MPS